createdAt,value
2019-04-10T00:01:46.928Z,73.90
2019-04-10T00:04:15.137Z,73.60
2019-04-10T00:06:43.356Z,73.80
2019-04-10T00:09:11.661Z,73.40
2019-04-10T00:11:40.921Z,73.30
2019-04-10T00:14:10.244Z,73.00
2019-04-10T00:16:38.538Z,73.00
2019-04-10T00:19:06.799Z,72.40
2019-04-10T00:21:35.519Z,72.10
2019-04-10T00:24:03.950Z,72.10
2019-04-10T00:26:32.201Z,71.70
2019-04-10T00:29:00.425Z,71.20
2019-04-10T00:31:29.693Z,71.00
2019-04-10T00:33:58.980Z,70.60
2019-04-10T00:36:27.339Z,70.70
2019-04-10T00:38:55.927Z,70.80
2019-04-10T00:41:24.247Z,69.90
2019-04-10T00:43:52.459Z,69.70
2019-04-10T00:46:20.664Z,69.80
2019-04-10T00:48:48.876Z,69.60
2019-04-10T00:51:17.291Z,69.40
2019-04-10T00:53:45.625Z,69.10
2019-04-10T00:56:14.567Z,68.70
2019-04-10T00:58:43.709Z,69.00
2019-04-10T01:01:12.255Z,68.40
2019-04-10T01:03:43.699Z,68.40
2019-04-10T01:06:13.638Z,68.60
2019-04-10T01:08:42.757Z,68.40
2019-04-10T01:11:11.048Z,68.40
2019-04-10T01:13:39.248Z,68.20
2019-04-10T01:16:07.455Z,67.90
2019-04-10T01:18:35.679Z,68.00
2019-04-10T01:21:04.115Z,67.80
2019-04-10T01:23:33.097Z,67.50
2019-04-10T01:26:01.501Z,67.80
2019-04-10T01:28:29.711Z,67.70
2019-04-10T01:30:59.006Z,67.40
2019-04-10T01:33:28.327Z,67.70
2019-04-10T01:35:56.598Z,68.40
2019-04-10T01:38:25.166Z,68.00
2019-04-10T01:40:53.509Z,67.70
2019-04-10T01:43:22.497Z,68.00
2019-04-10T01:45:51.565Z,67.70
2019-04-10T01:48:19.812Z,68.10
2019-04-10T01:50:48.019Z,67.80
2019-04-10T01:53:16.247Z,68.00
2019-04-10T01:55:44.538Z,68.00
2019-04-10T01:58:14.429Z,68.30
2019-04-10T02:00:50.665Z,67.80
2019-04-10T02:03:20.122Z,67.80
2019-04-10T02:05:49.175Z,68.30
2019-04-10T02:08:18.682Z,67.70
2019-04-10T02:10:48.119Z,67.80
2019-04-10T02:13:17.154Z,68.00
2019-04-10T02:15:46.096Z,68.00
2019-04-10T02:18:14.372Z,68.30
2019-04-10T02:20:43.141Z,68.50
2019-04-10T02:23:12.222Z,68.50
2019-04-10T02:25:41.099Z,68.50
2019-04-10T02:28:09.455Z,68.80
2019-04-10T02:30:39.628Z,69.10
2019-04-10T02:33:08.369Z,69.50
2019-04-10T02:35:37.993Z,69.40
2019-04-10T02:38:25.948Z,69.60
2019-04-10T02:40:37.322Z,69.70
2019-04-10T02:43:07.795Z,69.70
2019-04-10T02:45:36.556Z,69.70
2019-04-10T02:48:06.155Z,70.00
2019-04-10T02:50:35.387Z,70.30
2019-04-10T02:53:05.360Z,70.10
2019-04-10T02:55:35.397Z,70.30
2019-04-10T02:58:03.978Z,70.30
2019-04-10T03:00:35.875Z,70.50
2019-04-10T03:03:05.386Z,70.60
2019-04-10T03:05:34.641Z,70.70
2019-04-10T03:08:04.866Z,70.60
2019-04-10T03:10:40.828Z,70.90
2019-04-10T03:13:04.769Z,70.80
2019-04-10T03:15:33.774Z,70.60
2019-04-10T03:18:02.278Z,70.80
2019-04-10T03:20:30.547Z,70.80
2019-04-10T03:22:58.845Z,70.70
2019-04-10T03:25:27.053Z,71.00
2019-04-10T03:27:55.256Z,70.70
2019-04-10T03:30:23.699Z,70.80
2019-04-10T03:32:59.522Z,70.90
2019-04-10T03:35:25.400Z,71.00
2019-04-10T03:37:53.597Z,70.70
2019-04-10T03:40:21.839Z,71.10
2019-04-10T03:42:50.038Z,70.90
2019-04-10T03:45:18.243Z,70.80
2019-04-10T03:47:47.339Z,71.10
2019-04-10T03:50:16.326Z,70.50
2019-04-10T03:52:45.366Z,71.00
2019-04-10T03:55:13.711Z,71.40
2019-04-10T03:57:42.805Z,71.40
2019-04-10T04:00:12.102Z,71.60
2019-04-10T04:02:40.357Z,71.50
2019-04-10T04:05:08.651Z,71.80
2019-04-10T04:07:36.900Z,72.10
2019-04-10T04:10:06.754Z,72.30
2019-04-10T04:12:35.043Z,72.30
2019-04-10T04:15:03.710Z,72.60
2019-04-10T04:17:32.518Z,72.70
2019-04-10T04:20:01.020Z,73.00
2019-04-10T04:22:29.223Z,73.30
2019-04-10T04:24:58.171Z,73.40
2019-04-10T04:27:27.106Z,73.60
2019-04-10T04:29:55.432Z,73.80
2019-04-10T04:32:23.830Z,74.10
2019-04-10T04:34:52.208Z,74.10
2019-04-10T04:37:20.824Z,74.60
2019-04-10T04:39:49.120Z,74.70
2019-04-10T04:42:17.328Z,75.10
2019-04-10T04:44:45.556Z,75.10
2019-04-10T04:47:13.761Z,75.30
2019-04-10T04:49:42.128Z,75.40
2019-04-10T04:52:12.805Z,75.80
2019-04-10T04:54:41.254Z,75.70
2019-04-10T04:57:10.685Z,76.00
2019-04-10T04:59:38.968Z,76.30
2019-04-10T05:02:07.908Z,76.20
2019-04-10T05:04:37.315Z,76.30
2019-04-10T05:07:06.323Z,76.20
2019-04-10T05:09:38.799Z,76.40
2019-04-10T05:12:04.576Z,76.20
2019-04-10T05:14:32.800Z,76.10
2019-04-10T05:17:01.022Z,75.90
2019-04-10T05:19:29.744Z,76.00
2019-04-10T05:21:58.034Z,76.00
2019-04-10T05:24:30.056Z,76.00
2019-04-10T05:26:59.218Z,75.70
2019-04-10T05:29:30.370Z,75.40
2019-04-10T05:31:57.408Z,74.80
2019-04-10T05:34:25.666Z,74.30
2019-04-10T05:36:54.666Z,74.20
2019-04-10T05:39:22.968Z,73.40
2019-04-10T05:41:51.239Z,73.60
2019-04-10T05:44:20.110Z,72.50
2019-04-10T05:46:49.203Z,71.80
2019-04-10T05:49:17.504Z,72.10
2019-04-10T05:51:45.798Z,71.60
2019-04-10T05:54:14.915Z,70.70
2019-04-10T05:56:43.235Z,70.30
2019-04-10T05:59:13.167Z,70.10
2019-04-10T06:01:42.724Z,69.60
2019-04-10T06:04:11.644Z,69.00
2019-04-10T06:06:40.895Z,68.90
2019-04-10T06:09:09.484Z,68.00
2019-04-10T06:11:37.704Z,68.30
2019-04-10T06:14:05.910Z,67.90
2019-04-10T06:16:34.336Z,67.50
2019-04-10T06:19:03.635Z,65.80
2019-04-10T06:21:32.140Z,65.10
2019-04-10T06:24:00.380Z,65.20
2019-04-10T06:26:29.899Z,64.80
2019-04-10T06:28:58.923Z,65.80
2019-04-10T06:31:28.405Z,65.10
2019-04-10T06:33:56.892Z,65.00
2019-04-10T06:36:25.158Z,63.80
2019-04-10T06:38:53.371Z,63.80
2019-04-10T06:41:22.289Z,64.20
2019-04-10T06:43:50.700Z,64.70
2019-04-10T06:46:20.044Z,63.80
2019-04-10T06:48:48.392Z,63.80
2019-04-10T06:51:18.816Z,63.20
2019-04-10T06:53:54.049Z,62.50
2019-04-10T06:56:16.684Z,61.80
2019-04-10T06:58:44.989Z,61.50
2019-04-10T07:01:13.206Z,59.40
2019-04-10T07:03:51.931Z,58.70
2019-04-10T07:06:17.650Z,56.60
2019-04-10T07:08:46.411Z,54.40
2019-04-10T07:11:13.096Z,54.80
2019-04-10T07:13:41.662Z,54.20
2019-04-10T07:16:11.337Z,53.20
2019-04-10T07:18:41.127Z,52.20
2019-04-10T07:21:10.622Z,52.90
2019-04-10T07:23:38.938Z,50.60
2019-04-10T07:26:07.164Z,50.30
2019-04-10T07:28:37.807Z,49.50
2019-04-10T07:31:08.473Z,49.40
2019-04-10T07:33:35.328Z,50.00
2019-04-10T07:36:08.536Z,48.80
2019-04-10T07:38:33.471Z,49.30
2019-04-10T07:41:06.262Z,49.70
2019-04-10T07:43:32.139Z,48.50
2019-04-10T07:46:00.520Z,48.40
2019-04-10T07:48:29.427Z,49.00
2019-04-10T07:50:57.756Z,48.90
2019-04-10T07:53:26.813Z,48.40
2019-04-10T07:56:02.902Z,48.10
2019-04-10T07:58:25.181Z,47.70
2019-04-10T08:00:53.412Z,46.70
2019-04-10T08:03:21.623Z,45.50
2019-04-10T08:05:50.276Z,43.60
2019-04-10T08:08:19.362Z,46.30
2019-04-10T08:10:48.755Z,45.50
2019-04-10T08:13:17.301Z,45.30
2019-04-10T08:15:45.660Z,43.30
2019-04-10T08:18:14.666Z,42.20
2019-04-10T08:20:43.007Z,41.60
2019-04-10T08:23:12.325Z,41.60
2019-04-10T08:25:43.351Z,41.00
2019-04-10T08:28:11.713Z,42.40
2019-04-10T08:30:39.995Z,41.40
2019-04-10T08:33:08.197Z,39.60
2019-04-10T08:35:36.415Z,36.80
2019-04-10T08:38:05.482Z,34.00
2019-04-10T08:40:34.239Z,35.10
2019-04-10T08:43:04.435Z,34.00
2019-04-10T08:45:40.055Z,34.40
2019-04-10T08:48:03.580Z,32.70
2019-04-10T08:50:34.921Z,33.80
2019-04-10T08:53:04.083Z,35.00
2019-04-10T08:55:34.481Z,32.10
2019-04-10T08:58:02.909Z,31.50
2019-04-10T09:00:32.344Z,32.50
2019-04-10T09:03:00.864Z,30.80
2019-04-10T09:05:29.947Z,33.30
2019-04-10T09:07:58.284Z,32.60
2019-04-10T09:10:26.514Z,30.00
2019-04-10T09:12:55.898Z,30.00
2019-04-10T09:15:24.320Z,30.00
2019-04-10T09:17:52.563Z,29.60
2019-04-10T09:20:20.751Z,27.80
2019-04-10T09:23:10.390Z,28.60
2019-04-10T09:25:19.697Z,27.60
2019-04-10T09:27:48.119Z,27.20
2019-04-10T09:30:16.492Z,26.80
2019-04-10T09:32:45.029Z,25.70
2019-04-10T09:35:14.128Z,27.20
2019-04-10T09:37:43.375Z,26.70
2019-04-10T09:40:12.355Z,28.20
2019-04-10T09:42:41.777Z,28.10
2019-04-10T09:45:11.527Z,25.40
2019-04-10T09:47:39.900Z,26.60
2019-04-10T09:50:09.763Z,25.20
2019-04-10T09:52:38.074Z,26.10
2019-04-10T09:55:07.571Z,26.70
2019-04-10T09:57:36.726Z,26.40
2019-04-10T10:00:16.720Z,25.90
2019-04-10T10:02:45.262Z,25.60
2019-04-10T10:05:14.604Z,25.40
2019-04-10T10:07:43.266Z,24.80
2019-04-10T10:10:12.733Z,25.00
2019-04-10T10:12:41.076Z,25.80
2019-04-10T10:15:09.557Z,26.10
2019-04-10T10:17:39.066Z,25.00
2019-04-10T10:20:07.920Z,24.50
2019-04-10T10:22:37.051Z,23.90
2019-04-10T10:25:09.119Z,24.90
2019-04-10T10:27:40.839Z,24.20
2019-04-10T10:30:10.059Z,26.70
2019-04-10T10:32:39.700Z,26.20
2019-04-10T10:35:11.284Z,27.20
2019-04-10T10:37:40.933Z,25.40
2019-04-10T10:40:10.130Z,26.40
2019-04-10T10:42:40.202Z,27.30
2019-04-10T10:45:10.516Z,28.00
2019-04-10T10:47:40.175Z,28.60
2019-04-10T10:50:08.806Z,25.50
2019-04-10T10:52:37.059Z,26.50
2019-04-10T10:55:05.510Z,27.10
2019-04-10T10:57:35.248Z,28.40
2019-04-10T11:00:06.306Z,27.30
2019-04-10T11:02:35.789Z,25.30
2019-04-10T11:05:06.897Z,26.40
2019-04-10T11:07:35.136Z,28.10
2019-04-10T11:10:04.343Z,26.80
2019-04-10T11:12:34.128Z,26.00
2019-04-10T11:15:03.682Z,25.60
2019-04-10T11:17:32.176Z,24.60
2019-04-10T11:20:12.483Z,26.80
2019-04-10T11:22:40.128Z,26.60
2019-04-10T11:25:08.476Z,27.80
2019-04-10T11:27:42.506Z,24.70
2019-04-10T11:30:12.555Z,24.80
2019-04-10T11:32:42.222Z,23.40
2019-04-10T11:35:11.165Z,24.10
2019-04-10T11:37:44.572Z,24.00
2019-04-10T11:40:09.500Z,25.70
2019-04-10T11:42:39.724Z,23.80
2019-04-10T11:45:08.035Z,23.40
2019-04-10T11:47:36.848Z,25.10
2019-04-10T11:52:44.539Z,28.30
2019-04-10T11:57:41.760Z,24.40
2019-04-10T12:00:12.061Z,26.70
2019-04-10T12:02:42.427Z,26.60
2019-04-10T12:08:12.286Z,25.30
2019-04-10T12:12:48.615Z,26.70
2019-04-10T12:15:18.349Z,25.80
2019-04-10T12:17:46.860Z,25.20
2019-04-10T12:20:15.149Z,24.50
2019-04-10T12:22:44.105Z,24.70
2019-04-10T12:25:12.453Z,25.20
2019-04-10T12:27:47.335Z,24.90
2019-04-10T12:30:15.313Z,23.60
2019-04-10T12:32:45.986Z,22.90
2019-04-10T12:35:15.152Z,23.70
2019-04-10T12:37:43.531Z,23.80
2019-04-10T12:40:11.909Z,23.00
2019-04-10T12:42:40.724Z,23.30
2019-04-10T12:45:09.338Z,22.80
2019-04-10T12:47:37.764Z,22.90
2019-04-10T12:50:07.963Z,24.50
2019-04-10T12:52:35.786Z,23.40
2019-04-10T12:55:05.994Z,23.60
2019-04-10T12:57:33.546Z,23.00
2019-04-10T13:00:04.606Z,22.30
2019-04-10T13:02:31.468Z,23.40
2019-04-10T13:05:00.762Z,25.40
2019-04-10T13:07:29.699Z,23.50
2019-04-10T13:09:59.104Z,24.50
2019-04-10T13:12:27.319Z,23.00
2019-04-10T13:14:55.548Z,22.70
2019-04-10T13:17:24.757Z,23.00
2019-04-10T13:19:53.388Z,23.60
2019-04-10T13:22:24.969Z,24.30
2019-04-10T13:24:54.123Z,23.80
2019-04-10T13:27:23.083Z,23.80
2019-04-10T13:29:52.237Z,23.10
2019-04-10T13:32:20.567Z,21.90
2019-04-10T13:34:49.291Z,24.70
2019-04-10T13:37:17.997Z,23.80
2019-04-10T13:39:46.823Z,23.20
2019-04-10T13:42:15.524Z,24.10
2019-04-10T13:44:43.783Z,23.60
2019-04-10T13:47:12.020Z,23.20
2019-04-10T13:49:40.265Z,22.80
2019-04-10T13:52:08.475Z,22.50
2019-04-10T13:54:36.870Z,23.40
2019-04-10T13:57:05.705Z,23.10
2019-04-10T13:59:35.137Z,24.00
2019-04-10T14:02:04.799Z,26.10
2019-04-10T14:04:33.584Z,25.20
2019-04-10T14:07:02.067Z,24.50
2019-04-10T14:09:40.604Z,24.40
2019-04-10T14:12:00.236Z,23.50
2019-04-10T14:14:28.717Z,23.50
2019-04-10T14:16:57.326Z,24.30
2019-04-10T14:19:27.737Z,25.00
2019-04-10T14:21:55.490Z,24.00
2019-04-10T14:24:24.835Z,25.20
2019-04-10T14:26:58.133Z,26.20
2019-04-10T14:29:26.870Z,24.60
2019-04-10T14:31:56.853Z,25.00
2019-04-10T14:34:26.099Z,24.30
2019-04-10T14:36:54.816Z,24.60
2019-04-10T14:39:24.163Z,25.40
2019-04-10T14:41:53.841Z,25.30
2019-04-10T14:44:23.245Z,25.20
2019-04-10T14:46:52.135Z,24.70
2019-04-10T14:49:20.885Z,26.40
2019-04-10T14:51:49.449Z,26.30
2019-04-10T14:54:17.944Z,26.10
2019-04-10T14:56:46.398Z,25.50
2019-04-10T14:59:15.661Z,26.90
2019-04-10T15:01:44.255Z,26.90
2019-04-10T15:04:12.952Z,27.70
2019-04-10T15:06:41.756Z,27.20
2019-04-10T15:09:23.206Z,26.20
2019-04-10T15:11:47.139Z,26.60
2019-04-10T15:14:15.360Z,26.70
2019-04-10T15:16:52.945Z,27.20
2019-04-10T15:19:13.543Z,27.20
2019-04-10T15:21:42.972Z,28.00
2019-04-10T15:24:11.284Z,29.80
2019-04-10T15:26:40.403Z,30.60
2019-04-10T15:29:08.928Z,30.00
2019-04-10T15:31:37.184Z,30.10
2019-04-10T15:34:05.735Z,28.80
2019-04-10T15:36:34.080Z,27.70
2019-04-10T15:39:02.410Z,26.80
2019-04-10T15:41:30.792Z,29.00
2019-04-10T15:43:59.421Z,29.60
2019-04-10T15:46:28.826Z,29.10
2019-04-10T15:48:58.394Z,29.80
2019-04-10T15:51:27.925Z,29.10
2019-04-10T15:53:57.063Z,30.30
2019-04-10T15:56:25.645Z,29.70
2019-04-10T15:58:54.027Z,29.30
2019-04-10T16:01:22.244Z,29.80
2019-04-10T16:03:50.692Z,31.00
2019-04-10T16:06:18.961Z,31.40
2019-04-10T16:08:48.187Z,31.00
2019-04-10T16:11:19.426Z,30.90
2019-04-10T16:13:49.427Z,30.30
2019-04-10T16:16:25.514Z,31.00
2019-04-10T16:18:55.488Z,31.40
2019-04-10T16:21:24.539Z,32.30
2019-04-10T16:23:54.655Z,32.80
2019-04-10T16:26:23.047Z,35.00
2019-04-10T16:28:51.563Z,36.10
2019-04-10T16:31:19.952Z,36.30
2019-04-10T16:33:48.357Z,36.30
2019-04-10T16:36:17.170Z,37.10
2019-04-10T16:38:45.617Z,36.60
2019-04-10T16:41:13.897Z,37.30
2019-04-10T16:43:42.146Z,38.10
2019-04-10T16:46:11.201Z,38.20
2019-04-10T16:48:40.021Z,38.70
2019-04-10T16:51:14.790Z,38.80
2019-04-10T16:53:38.442Z,39.00
2019-04-10T16:56:07.359Z,39.10
2019-04-10T16:58:36.681Z,39.40
2019-04-10T17:01:06.369Z,40.10
2019-04-10T17:03:35.751Z,40.10
2019-04-10T17:06:04.100Z,40.80
2019-04-10T17:08:32.341Z,40.60
2019-04-10T17:11:00.819Z,41.20
2019-04-10T17:13:29.208Z,41.90
2019-04-10T17:15:57.641Z,41.40
2019-04-10T17:18:26.163Z,42.20
2019-04-10T17:20:55.115Z,42.00
2019-04-10T17:23:24.467Z,42.70
2019-04-10T17:25:52.978Z,43.20
2019-04-10T17:28:23.193Z,43.10
2019-04-10T17:30:51.894Z,43.40
2019-04-10T17:33:20.680Z,43.20
2019-04-10T17:35:49.078Z,43.60
2019-04-10T17:38:18.456Z,44.00
2019-04-10T17:40:51.411Z,44.00
2019-04-10T17:43:16.964Z,44.60
2019-04-10T17:45:45.319Z,44.80
2019-04-10T17:48:13.752Z,44.50
2019-04-10T17:50:43.346Z,45.00
2019-04-10T17:53:13.530Z,44.70
2019-04-10T17:55:42.120Z,45.00
2019-04-10T17:58:11.498Z,45.30
2019-04-10T18:00:45.296Z,45.40
2019-04-10T18:03:16.774Z,46.00
2019-04-10T18:05:44.588Z,46.10
2019-04-10T18:08:12.961Z,46.00
2019-04-10T18:10:48.740Z,47.50
2019-04-10T18:13:11.521Z,47.00
2019-04-10T18:15:39.983Z,47.00
2019-04-10T18:18:08.346Z,47.30
2019-04-10T18:20:36.592Z,47.80
2019-04-10T18:23:05.001Z,48.10
2019-04-10T18:25:34.050Z,48.30
2019-04-10T18:28:03.280Z,48.30
2019-04-10T18:30:33.827Z,48.80
2019-04-10T18:33:03.252Z,49.00
2019-04-10T18:35:32.428Z,49.00
2019-04-10T18:38:01.587Z,49.40
2019-04-10T18:40:30.024Z,50.00
2019-04-10T18:42:59.535Z,50.20
2019-04-10T18:45:28.475Z,50.40
2019-04-10T18:47:56.683Z,50.40
2019-04-10T18:50:24.892Z,50.40
2019-04-10T18:52:53.927Z,50.40
2019-04-10T18:55:22.574Z,50.80
2019-04-10T18:57:51.424Z,51.60
2019-04-10T19:00:21.866Z,52.00
2019-04-10T19:02:57.756Z,52.20
2019-04-10T19:05:40.295Z,52.80
2019-04-10T19:08:11.131Z,53.30
2019-04-10T19:10:38.994Z,53.20
2019-04-10T19:13:07.473Z,53.20
2019-04-10T19:15:37.172Z,53.50
2019-04-10T19:18:06.253Z,54.30
2019-04-10T19:20:35.357Z,54.20
2019-04-10T19:23:04.392Z,54.60
2019-04-10T19:25:32.909Z,54.70
2019-04-10T19:28:01.417Z,54.90
2019-04-10T19:30:31.604Z,54.50
2019-04-10T19:32:59.886Z,54.50
2019-04-10T19:35:31.076Z,54.70
2019-04-10T19:37:59.420Z,54.90
2019-04-10T19:40:27.820Z,55.00
2019-04-10T19:42:56.124Z,55.40
2019-04-10T19:45:24.354Z,55.90
2019-04-10T19:47:52.829Z,56.70
2019-04-10T19:50:22.057Z,56.10
2019-04-10T19:52:50.785Z,56.70
2019-04-10T19:55:19.808Z,57.00
2019-04-10T19:57:48.489Z,57.10
2019-04-10T20:00:18.720Z,57.00
2019-04-10T20:02:47.316Z,57.60
2019-04-10T20:05:15.651Z,57.50
2019-04-10T20:07:44.964Z,57.70
2019-04-10T20:10:13.942Z,57.60
2019-04-10T20:12:42.622Z,57.70
2019-04-10T20:15:12.201Z,58.00
2019-04-10T20:17:40.554Z,58.10
2019-04-10T20:20:09.050Z,58.30
2019-04-10T20:22:37.324Z,59.20
2019-04-10T20:25:06.154Z,58.40
2019-04-10T20:27:34.474Z,58.80
2019-04-10T20:30:03.738Z,58.60
2019-04-10T20:32:32.344Z,58.90
2019-04-10T20:35:00.672Z,58.60
2019-04-10T20:37:29.091Z,58.60
2019-04-10T20:39:57.905Z,59.50
2019-04-10T20:42:26.652Z,59.40
2019-04-10T20:44:54.983Z,59.50
2019-04-10T20:47:23.192Z,59.40
2019-04-10T20:49:51.508Z,59.90
2019-04-10T20:52:19.996Z,59.90
2019-04-10T20:54:49.899Z,59.90
2019-04-10T20:57:19.204Z,59.60
2019-04-10T20:59:48.786Z,59.80
2019-04-10T21:02:18.058Z,59.90
2019-04-10T21:04:54.475Z,60.10
2019-04-10T21:07:16.428Z,60.00
2019-04-10T21:09:44.956Z,60.30
2019-04-10T21:12:17.444Z,60.30
2019-04-10T21:14:43.887Z,60.40
2019-04-10T21:17:12.239Z,60.70
2019-04-10T21:19:40.947Z,60.70
2019-04-10T21:22:09.340Z,60.60
2019-04-10T21:24:37.832Z,60.50
2019-04-10T21:27:06.199Z,60.60
2019-04-10T21:29:44.619Z,60.50
2019-04-10T21:32:23.952Z,60.80
2019-04-10T21:34:53.431Z,61.20
2019-04-10T21:37:22.236Z,60.90
2019-04-10T21:39:50.673Z,61.00
2019-04-10T21:42:23.485Z,61.30
2019-04-10T21:44:49.244Z,61.60
2019-04-10T21:47:17.531Z,61.70
2019-04-10T21:49:46.396Z,62.10
2019-04-10T21:52:14.740Z,61.90
2019-04-10T21:55:02.634Z,62.40
2019-04-10T21:57:31.811Z,62.50
2019-04-10T22:00:01.381Z,62.30
2019-04-10T22:02:30.035Z,63.30
2019-04-10T22:04:59.507Z,62.20
2019-04-10T22:07:43.066Z,62.50
2019-04-10T22:10:25.959Z,62.80
2019-04-10T22:12:55.404Z,63.20
2019-04-10T22:15:31.214Z,63.30
2019-04-10T22:17:59.445Z,63.30
2019-04-10T22:20:27.725Z,63.30
2019-04-10T22:22:55.940Z,63.40
2019-04-10T22:25:24.162Z,63.50
2019-04-10T22:27:52.364Z,63.50
2019-04-10T22:30:21.074Z,63.50
2019-04-10T22:32:49.360Z,63.70
2019-04-10T22:35:17.575Z,63.30
2019-04-10T22:37:46.318Z,63.30
2019-04-10T22:40:15.297Z,63.00
2019-04-10T22:42:46.656Z,63.10
2019-04-10T22:45:29.221Z,63.40
2019-04-10T22:47:58.726Z,63.50
2019-04-10T22:50:27.540Z,63.80
2019-04-10T22:52:57.007Z,63.90
2019-04-10T22:55:26.023Z,64.30
2019-04-10T22:57:54.766Z,64.00
2019-04-10T23:00:32.830Z,64.20
2019-04-10T23:03:01.149Z,64.30
2019-04-10T23:05:29.355Z,64.80
2019-04-10T23:07:57.562Z,65.60
2019-04-10T23:10:26.789Z,65.10
2019-04-10T23:13:01.691Z,65.10
2019-04-10T23:15:25.293Z,65.20
2019-04-10T23:17:53.599Z,65.30
2019-04-10T23:20:21.807Z,65.40
2019-04-10T23:22:50.676Z,65.60
2019-04-10T23:25:19.461Z,65.50
2019-04-10T23:27:51.465Z,65.70
2019-04-10T23:30:19.821Z,65.90
2019-04-10T23:32:48.343Z,65.90
2019-04-10T23:35:17.110Z,65.90
2019-04-10T23:37:45.513Z,65.70
2019-04-10T23:40:14.989Z,66.20
2019-04-10T23:42:44.178Z,66.20
2019-04-10T23:45:19.637Z,66.60
2019-04-10T23:47:48.673Z,67.00
2019-04-10T23:50:17.088Z,67.40
2019-04-10T23:52:45.288Z,67.40
2019-04-10T23:55:13.706Z,67.50
2019-04-10T23:57:43.226Z,68.00
